This is the latest recevied weather packets stored in our database for station/object IQ1LY-3. If no packets are shown the sender has not sent any weather packets the latest 10 day(s).
| Time | Temp. | Humidity | Pressure | Rain* | Wind** | Luminosity | Snow |
|---|---|---|---|---|---|---|---|
| 1777337370 | 14.44° C | 88% | 1016.3 hPa | 0 mm | - | - | - |
| 1777336167 | 15° C | 87% | 1016.3 hPa | 0 mm | - | - | - |
| 1777334966 | 15° C | 87% | 1016.3 hPa | 0 mm | - | - | - |
| 1777333702 | 15° C | 87% | 1016.6 hPa | 0 mm | - | - | - |
| 1777333069 | 15° C | 86% | 1016.6 hPa | 0 mm | - | - | - |
| 1777329972 | 16.11° C | 85% | 1016.6 hPa | 0 mm | - | - | - |
| 1777328139 | 16.11° C | 84% | 1016.6 hPa | 0 mm | - | - | - |
| 1777326905 | 16.11° C | 84% | 1016.6 hPa | 0 mm | - | - | - |
| 1777317799 | 17.22° C | 81% | 1016.6 hPa | 0 mm | - | - | - |
| 1777313531 | 17.78° C | 79% | 1016.3 hPa | 0 mm | - | - | - |
| 1777311728 | 18.33° C | 78% | 1016.3 hPa | 0 mm | - | - | - |
| 1777308724 | 18.89° C | 74% | 1016.6 hPa | 0 mm | - | - | - |
| 1777308092 | 18.89° C | 74% | 1016.3 hPa | 0 mm | - | - | - |
| 1777304485 | 20° C | 72% | 1016.6 hPa | 0 mm | - | - | - |
| 1777300850 | 20.56° C | 69% | 1016.6 hPa | 0 mm | - | - | - |
| 1777296582 | 20.56° C | 70% | 1017.6 hPa | 0 mm | - | - | - |
| 1777295349 | 20.56° C | 70% | 1017.9 hPa | 0 mm | - | - | - |
| 1777294748 | 20.56° C | 71% | 1018.3 hPa | 0 mm | - | - | - |
| 1777291112 | 20.56° C | 72% | 1018.6 hPa | 0 mm | - | - | - |
| 1777290511 | 20.56° C | 72% | 1018.6 hPa | 0 mm | - | - | - |
| 1777289910 | 20.56° C | 74% | 1018.6 hPa | 0 mm | - | - | - |
| 1777285611 | 19.44° C | 76% | 1019 hPa | 0 mm | - | - | - |
| 1777280743 | 19.44° C | 72% | 1019.3 hPa | 0 mm | - | - | - |
| 1777278940 | 20° C | 72% | 1019.3 hPa | 0 mm | - | - | - |
| 1777274040 | 17.78° C | 76% | 1019 hPa | 0 mm | - | - | - |
* Rain latest hour (hover to see other rain measurements)
** Current wind speed in m/s (hover to see current wind gust speed)